Time;durP1;ratioP1;P1;durP2;ratioP2;P2;SDS_P1;SDS_P2;PMS_P1;PMS_P2;Temp;Humidity;BMP_temperature;BMP_pressure;BME280_temperature;BME280_humidity;BME280_pressure;Samples;Min_cycle;Max_cycle;Signal;HPM_P1;HPM_P2
2021/12/30 00:01:00;;;;;;;3.90;1.70;;;8.20;99.90;;;;;;5068271;28;21067;-71
2021/12/30 00:03:35;;;;;;;1.87;1.67;;;8.20;99.90;;;;;;5067460;28;20439;-71
2021/12/30 00:06:11;;;;;;;4.07;1.90;;;8.20;99.90;;;;;;5067012;28;20550;-71
2021/12/30 00:08:49;;;;;;;3.08;2.15;;;8.20;99.90;;;;;;5052236;28;20438;-72
2021/12/30 00:11:22;;;;;;;3.42;1.92;;;8.20;99.90;;;;;;5047073;28;20223;-71
2021/12/30 00:13:51;;;;;;;3.23;2.33;;;8.20;99.90;;;;;;5043541;28;20212;-71
2021/12/30 00:16:24;;;;;;;3.90;2.22;;;8.20;99.90;;;;;;5035926;28;20504;-72
2021/12/30 00:18:59;;;;;;;3.63;1.80;;;8.20;99.90;;;;;;5082640;28;20213;-72
2021/12/30 00:21:29;;;;;;;4.73;3.40;;;8.20;99.90;;;;;;5032175;28;20484;-72
2021/12/30 00:24:12;;;;;;;4.60;2.13;;;8.20;99.90;;;;;;5056607;28;20545;-72
2021/12/30 00:26:54;;;;;;;2.43;2.20;;;8.20;99.90;;;;;;5049908;28;20475;-72
2021/12/30 00:32:24;;;;;;;4.40;2.27;;;8.20;99.90;;;;;;5057904;28;20509;-71
2021/12/30 00:34:59;;;;;;;2.37;1.83;;;8.20;99.90;;;;;;5067619;28;20540;-72
2021/12/30 00:37:44;;;;;;;5.40;1.77;;;8.20;99.90;;;;;;5054727;28;20452;-72
2021/12/30 00:40:15;;;;;;;2.73;1.70;;;8.20;99.90;;;;;;5053368;28;20442;-71
2021/12/30 00:42:46;;;;;;;4.13;2.43;;;8.20;99.90;;;;;;5082191;28;20443;-71
2021/12/30 00:45:20;;;;;;;4.20;1.80;;;8.20;99.90;;;;;;5050778;28;21275;-71
2021/12/30 00:47:55;;;;;;;2.87;2.57;;;8.20;99.90;;;;;;5071578;28;20530;-71
2021/12/30 00:50:25;;;;;;;2.50;1.70;;;8.20;99.90;;;;;;5049342;28;20461;-72
2021/12/30 00:52:58;;;;;;;5.30;3.40;;;8.20;99.90;;;;;;5055858;28;20457;-71
2021/12/30 00:55:32;;;;;;;4.10;2.47;;;8.20;99.90;;;;;;5065996;28;20469;-70
2021/12/30 00:58:19;;;;;;;4.20;2.50;;;8.20;99.90;;;;;;5037404;28;20544;-71
2021/12/30 01:00:54;;;;;;;4.77;2.03;;;8.30;99.90;;;;;;5051761;28;20499;-72
2021/12/30 01:03:29;;;;;;;6.60;1.53;;;8.20;99.90;;;;;;5081933;28;20478;-71
2021/12/30 01:06:08;;;;;;;2.00;1.87;;;8.30;99.90;;;;;;5062992;28;20461;-70
2021/12/30 01:08:40;;;;;;;2.40;1.57;;;8.20;99.90;;;;;;5056417;28;20441;-72
2021/12/30 01:11:20;;;;;;;3.17;2.37;;;8.20;99.90;;;;;;5060798;28;21063;-71
2021/12/30 01:13:59;;;;;;;2.60;1.90;;;8.20;99.90;;;;;;5063861;28;20476;-72
2021/12/30 01:16:35;;;;;;;5.57;2.27;;;8.20;99.90;;;;;;5051903;28;20472;-72
2021/12/30 01:19:22;;;;;;;2.90;1.80;;;8.20;99.90;;;;;;5063539;28;20524;-72
2021/12/30 01:21:54;;;;;;;4.07;2.40;;;8.30;99.90;;;;;;5054984;28;20814;-70
2021/12/30 01:24:33;;;;;;;2.40;1.67;;;8.30;99.90;;;;;;5039920;28;20468;-71
2021/12/30 01:27:02;;;;;;;6.73;1.97;;;8.30;99.90;;;;;;5064560;28;20562;-71
2021/12/30 01:29:34;;;;;;;3.10;1.60;;;8.30;99.90;;;;;;5050428;28;20439;-71
2021/12/30 01:32:09;;;;;;;3.30;2.37;;;8.30;99.90;;;;;;5057433;28;20472;-71
2021/12/30 01:34:49;;;;;;;3.97;2.20;;;8.30;99.90;;;;;;5045874;28;20453;-71
2021/12/30 01:37:24;;;;;;;4.17;2.67;;;8.30;99.90;;;;;;5052996;28;20552;-72
2021/12/30 01:40:11;;;;;;;3.53;2.33;;;8.30;99.90;;;;;;5040385;28;20463;-72
2021/12/30 01:42:42;;;;;;;2.70;2.30;;;8.30;99.90;;;;;;5066630;28;20521;-73
2021/12/30 01:45:16;;;;;;;1.77;1.67;;;8.30;99.90;;;;;;5054088;28;20462;-71
2021/12/30 01:47:50;;;;;;;3.63;2.13;;;8.30;99.90;;;;;;5065323;28;20448;-71
2021/12/30 01:50:26;;;;;;;3.60;1.70;;;8.30;99.90;;;;;;5037153;28;20449;-71
2021/12/30 01:52:58;;;;;;;3.00;1.83;;;8.30;99.90;;;;;;5067964;28;20517;-72
2021/12/30 01:55:29;;;;;;;3.73;2.17;;;8.30;99.90;;;;;;5049060;28;20561;-71
2021/12/30 01:58:01;;;;;;;2.73;1.70;;;8.30;99.90;;;;;;5072964;28;20488;-71
2021/12/30 02:03:30;;;;;;;2.90;2.00;;;8.30;99.90;;;;;;5049731;28;20525;-72
2021/12/30 02:06:02;;;;;;;4.70;1.93;;;8.30;99.90;;;;;;5058959;28;20511;-72
2021/12/30 02:08:53;;;;;;;2.70;2.00;;;8.30;99.90;;;;;;5041078;28;20449;-71
2021/12/30 02:11:35;;;;;;;3.63;1.73;;;8.30;99.90;;;;;;5055335;28;20880;-72
2021/12/30 02:14:11;;;;;;;2.60;1.90;;;8.30;99.90;;;;;;5048258;28;20458;-71
2021/12/30 02:16:41;;;;;;;4.97;2.05;;;8.30;99.90;;;;;;5044771;28;20688;-72
2021/12/30 02:19:23;;;;;;;8.53;2.23;;;8.30;99.90;;;;;;5064607;28;20213;-72
2021/12/30 02:22:04;;;;;;;2.80;1.92;;;8.30;99.90;;;;;;5079383;28;20513;-72
2021/12/30 02:24:34;;;;;;;2.93;1.67;;;8.30;99.90;;;;;;5047055;28;20217;-72
2021/12/30 02:27:08;;;;;;;5.80;2.03;;;8.30;99.90;;;;;;5046437;28;20478;-72
2021/12/30 02:29:39;;;;;;;2.70;1.90;;;8.40;99.90;;;;;;5031513;28;20279;-71
2021/12/30 02:32:12;;;;;;;2.50;1.70;;;8.30;99.90;;;;;;5052064;28;20569;-71
2021/12/30 02:34:46;;;;;;;2.90;1.77;;;8.30;99.90;;;;;;5052171;28;20559;-72
2021/12/30 02:37:19;;;;;;;2.95;1.80;;;8.30;99.90;;;;;;5051403;28;21311;-72
2021/12/30 02:39:52;;;;;;;2.63;2.00;;;8.30;99.90;;;;;;5060407;28;20293;-72
2021/12/30 02:42:23;;;;;;;3.33;1.50;;;8.30;99.90;;;;;;5060239;28;20569;-72
2021/12/30 02:44:55;;;;;;;4.83;2.20;;;8.30;99.90;;;;;;5048456;28;20539;-72
2021/12/30 02:47:27;;;;;;;4.87;2.10;;;8.40;99.90;;;;;;5061039;28;20467;-72
2021/12/30 02:49:56;;;;;;;3.40;1.77;;;8.30;99.90;;;;;;5049959;28;20427;-72
2021/12/30 02:52:28;;;;;;;4.00;1.90;;;8.30;99.90;;;;;;5052638;28;20543;-71
2021/12/30 02:55:03;;;;;;;3.73;2.17;;;8.30;99.90;;;;;;5079059;28;20473;-70
2021/12/30 02:57:35;;;;;;;1.83;1.73;;;8.40;99.90;;;;;;5071540;28;21009;-72
2021/12/30 03:00:09;;;;;;;4.40;2.20;;;8.30;99.90;;;;;;5053625;28;21040;-71
2021/12/30 03:02:38;;;;;;;3.20;1.37;;;8.30;99.90;;;;;;5063918;28;20456;-72
2021/12/30 03:05:10;;;;;;;4.60;2.17;;;8.40;99.90;;;;;;5070433;28;20493;-71
2021/12/30 03:07:40;;;;;;;2.93;1.67;;;8.30;99.90;;;;;;5063399;28;20434;-72
2021/12/30 03:10:15;;;;;;;1.87;1.73;;;8.40;99.90;;;;;;5065488;28;20529;-70
2021/12/30 03:12:51;;;;;;;2.50;2.30;;;8.40;99.90;;;;;;5048593;28;20444;-71
2021/12/30 03:15:26;;;;;;;2.10;1.60;;;8.40;99.90;;;;;;5084380;27;20520;-71
2021/12/30 03:17:58;;;;;;;3.13;2.10;;;8.40;99.90;;;;;;5061304;28;20431;-71
2021/12/30 03:20:34;;;;;;;1.50;1.40;;;8.40;99.90;;;;;;5068591;28;20556;-71
2021/12/30 03:23:09;;;;;;;3.23;1.60;;;8.40;99.90;;;;;;5072344;28;20520;-73
2021/12/30 03:25:37;;;;;;;3.00;1.70;;;8.40;99.90;;;;;;5039601;28;20485;-71
2021/12/30 03:28:06;;;;;;;1.50;1.40;;;8.40;99.90;;;;;;5061022;28;20449;-72
2021/12/30 03:30:35;;;;;;;2.60;1.70;;;8.40;99.90;;;;;;5057915;28;20463;-72
2021/12/30 03:33:08;;;;;;;3.10;1.70;;;8.40;99.90;;;;;;5072242;28;20442;-71
2021/12/30 03:35:38;;;;;;;2.73;2.00;;;8.40;99.90;;;;;;5045153;28;20548;-72
2021/12/30 03:38:09;;;;;;;3.27;1.70;;;8.40;99.90;;;;;;5072249;28;20974;-71
2021/12/30 03:40:38;;;;;;;2.10;1.50;;;8.40;99.90;;;;;;5054647;28;20528;-71
2021/12/30 03:43:07;;;;;;;2.60;1.70;;;8.40;99.90;;;;;;5060577;28;21256;-71
2021/12/30 03:45:36;;;;;;;2.90;1.50;;;8.40;99.90;;;;;;5053338;28;21128;-72
2021/12/30 03:48:08;;;;;;;5.17;2.33;;;8.40;99.90;;;;;;5050551;28;20450;-72
2021/12/30 03:50:43;;;;;;;3.40;2.10;;;8.40;99.90;;;;;;5068906;28;20478;-72
2021/12/30 03:53:15;;;;;;;1.80;1.47;;;8.40;99.90;;;;;;5067602;28;20446;-71
2021/12/30 03:55:51;;;;;;;2.73;1.70;;;8.40;99.90;;;;;;5048171;28;20889;-72
2021/12/30 03:58:31;;;;;;;2.20;1.63;;;8.40;99.90;;;;;;5087341;28;20446;-71
2021/12/30 04:01:04;;;;;;;2.23;1.60;;;8.40;99.90;;;;;;5052062;28;20547;-72
2021/12/30 04:03:40;;;;;;;2.03;1.83;;;8.50;99.90;;;;;;5062347;28;20435;-72
2021/12/30 04:06:18;;;;;;;4.43;1.30;;;8.40;99.90;;;;;;5039504;28;20474;-72
2021/12/30 04:08:52;;;;;;;1.50;1.40;;;8.40;99.90;;;;;;5066003;28;20434;-71
2021/12/30 04:11:33;;;;;;;1.73;1.63;;;8.50;99.90;;;;;;5047641;28;20472;-71
2021/12/30 04:14:05;;;;;;;1.50;1.40;;;8.40;99.90;;;;;;5053086;28;20546;-72
2021/12/30 04:16:37;;;;;;;1.50;1.40;;;8.50;99.90;;;;;;5050018;28;20470;-72
2021/12/30 04:19:06;;;;;;;3.50;1.83;;;8.40;99.90;;;;;;5082411;28;20439;-72
2021/12/30 04:21:35;;;;;;;2.20;1.67;;;8.50;99.90;;;;;;5081863;28;20495;-72
2021/12/30 04:24:06;;;;;;;2.30;1.10;;;8.50;99.90;;;;;;5054370;28;20461;-72
2021/12/30 04:26:44;;;;;;;2.43;1.87;;;8.50;99.90;;;;;;5058153;28;20530;-72
2021/12/30 04:29:21;;;;;;;3.33;1.87;;;8.50;99.90;;;;;;5050124;28;20442;-72
2021/12/30 04:31:52;;;;;;;2.17;1.30;;;8.50;99.90;;;;;;5050798;28;20479;-72
2021/12/30 04:34:31;;;;;;;1.60;1.23;;;8.50;99.90;;;;;;5052303;28;20462;-72
2021/12/30 04:37:05;;;;;;;1.93;1.50;;;8.50;99.90;;;;;;5057729;28;20500;-73
2021/12/30 04:39:36;;;;;;;2.43;1.40;;;8.50;99.90;;;;;;5077885;28;20945;-72
2021/12/30 04:42:15;;;;;;;3.28;1.60;;;8.50;99.90;;;;;;5053995;28;20484;-72
2021/12/30 04:44:44;;;;;;;2.00;1.60;;;8.50;99.90;;;;;;5081396;28;20219;-72
2021/12/30 04:47:21;;;;;;;1.37;1.10;;;8.50;99.90;;;;;;5046819;28;20231;-72
2021/12/30 04:49:52;;;;;;;1.57;1.47;;;8.50;99.90;;;;;;5038703;28;20450;-73
2021/12/30 04:52:24;;;;;;;1.63;1.50;;;8.50;99.90;;;;;;5066011;28;20473;-72
2021/12/30 04:54:58;;;;;;;2.90;1.67;;;8.50;99.90;;;;;;5063571;28;20459;-72
2021/12/30 04:57:29;;;;;;;3.20;1.80;;;8.50;99.90;;;;;;5026855;28;20540;-72
2021/12/30 05:00:03;;;;;;;2.20;2.00;;;8.50;99.90;;;;;;5025456;28;20464;-71
2021/12/30 05:02:45;;;;;;;3.07;1.20;;;8.50;99.90;;;;;;5064773;28;20458;-71
2021/12/30 05:05:15;;;;;;;2.07;1.60;;;8.50;99.90;;;;;;5052166;28;20555;-71
2021/12/30 05:10:49;;;;;;;1.97;1.40;;;8.50;99.90;;;;;;5047627;28;20465;-71
2021/12/30 05:13:19;;;;;;;2.70;1.53;;;8.50;99.90;;;;;;5056227;28;20566;-72
2021/12/30 05:15:54;;;;;;;1.50;1.23;;;8.50;99.90;;;;;;5045822;28;20484;-72
2021/12/30 05:18:36;;;;;;;2.83;1.87;;;8.50;99.90;;;;;;5062837;28;20432;-71
2021/12/30 05:21:07;;;;;;;1.50;1.30;;;8.50;99.90;;;;;;5036157;28;20578;-72
2021/12/30 05:23:50;;;;;;;3.30;1.60;;;8.60;99.90;;;;;;5052779;28;20461;-72
2021/12/30 05:26:22;;;;;;;1.97;1.20;;;8.50;99.90;;;;;;5035950;28;20463;-71
2021/12/30 05:28:54;;;;;;;1.70;1.60;;;8.50;99.90;;;;;;5052668;28;20521;-72
2021/12/30 05:31:24;;;;;;;1.53;1.27;;;8.50;99.90;;;;;;5046740;28;20499;-72
2021/12/30 05:33:56;;;;;;;2.30;1.30;;;8.50;99.90;;;;;;5050373;28;20482;-72
2021/12/30 05:36:25;;;;;;;1.93;1.17;;;8.50;99.90;;;;;;5049840;27;20524;-71
2021/12/30 05:38:58;;;;;;;1.00;0.90;;;8.50;99.90;;;;;;5036420;28;20471;-72
2021/12/30 05:41:29;;;;;;;1.37;1.27;;;8.50;99.90;;;;;;5045619;28;20476;-72
2021/12/30 05:44:03;;;;;;;1.63;1.30;;;8.60;99.90;;;;;;5054877;28;20836;-72
2021/12/30 05:46:46;;;;;;;1.10;1.00;;;8.60;99.90;;;;;;5079101;27;20470;-71
2021/12/30 05:49:15;;;;;;;1.50;1.20;;;8.50;99.90;;;;;;5064458;28;20808;-72
2021/12/30 05:51:44;;;;;;;2.10;1.23;;;8.60;99.90;;;;;;5055213;28;20471;-72
2021/12/30 05:54:13;;;;;;;1.57;1.43;;;8.60;99.90;;;;;;5047977;28;20581;-72
2021/12/30 05:56:46;;;;;;;2.10;1.23;;;8.60;99.90;;;;;;5056084;28;20502;-71
2021/12/30 05:59:18;;;;;;;1.90;1.23;;;8.60;99.90;;;;;;5067800;28;20473;-72
2021/12/30 06:01:49;;;;;;;1.17;1.07;;;8.60;99.90;;;;;;5045907;28;20499;-72
2021/12/30 06:04:20;;;;;;;1.47;1.27;;;8.60;99.90;;;;;;5054103;28;20938;-71
2021/12/30 06:06:50;;;;;;;2.43;1.17;;;8.60;99.90;;;;;;5044160;28;20529;-72
2021/12/30 06:09:26;;;;;;;2.07;1.57;;;8.60;99.90;;;;;;5056694;28;20768;-73
2021/12/30 06:11:59;;;;;;;2.47;2.27;;;8.60;99.90;;;;;;5062061;28;20529;-72
2021/12/30 06:14:28;;;;;;;1.40;1.30;;;8.60;99.90;;;;;;5054209;28;20538;-71
2021/12/30 06:16:59;;;;;;;1.43;1.33;;;8.60;99.90;;;;;;5040478;28;20471;-71
2021/12/30 06:19:30;;;;;;;1.37;1.27;;;8.60;99.90;;;;;;5060576;28;21013;-72
2021/12/30 06:22:06;;;;;;;1.57;1.40;;;8.60;99.90;;;;;;5048562;28;20475;-72
2021/12/30 06:24:36;;;;;;;3.23;1.43;;;8.60;99.90;;;;;;5038695;28;20458;-71
2021/12/30 06:27:07;;;;;;;1.50;1.40;;;8.60;99.90;;;;;;5058954;28;20582;-72
2021/12/30 06:29:44;;;;;;;1.40;1.30;;;8.60;99.90;;;;;;5035892;28;20524;-72
2021/12/30 06:32:14;;;;;;;1.33;1.17;;;8.60;99.90;;;;;;5043906;28;20873;-72
2021/12/30 06:34:46;;;;;;;1.67;1.17;;;8.60;99.90;;;;;;5056620;28;20454;-71
2021/12/30 06:37:15;;;;;;;1.60;1.40;;;8.60;99.90;;;;;;5060855;28;20534;-72
2021/12/30 06:39:55;;;;;;;1.73;1.63;;;8.60;99.90;;;;;;5044661;28;20855;-72
2021/12/30 06:42:29;;;;;;;1.47;1.37;;;8.60;99.90;;;;;;5056821;28;20566;-71
2021/12/30 06:45:06;;;;;;;2.00;1.50;;;8.60;99.90;;;;;;5058499;28;20472;-73
2021/12/30 06:47:45;;;;;;;1.40;1.30;;;8.60;99.90;;;;;;5062209;28;20484;-71
2021/12/30 06:50:24;;;;;;;1.30;1.00;;;8.60;99.90;;;;;;5057373;28;20441;-72
2021/12/30 06:52:56;;;;;;;1.40;1.30;;;8.60;99.90;;;;;;5066163;28;20457;-72
2021/12/30 06:55:25;;;;;;;1.83;1.47;;;8.70;99.90;;;;;;5057038;28;20541;-72
2021/12/30 06:58:00;;;;;;;1.10;0.80;;;8.70;99.90;;;;;;5053534;28;20872;-72
2021/12/30 07:00:48;;;;;;;1.57;1.47;;;8.60;99.90;;;;;;5044129;28;20472;-72
2021/12/30 07:03:24;;;;;;;1.60;1.50;;;8.70;99.90;;;;;;5075116;28;20471;-72
2021/12/30 07:06:07;;;;;;;1.80;1.47;;;8.70;99.90;;;;;;5059102;28;20497;-71
2021/12/30 07:08:38;;;;;;;1.50;1.40;;;8.60;99.90;;;;;;5064678;28;21232;-72
2021/12/30 07:11:12;;;;;;;1.27;1.17;;;8.60;99.90;;;;;;5045587;28;20473;-73
2021/12/30 07:13:43;;;;;;;3.43;1.50;;;8.70;99.90;;;;;;5060475;28;20526;-72
2021/12/30 07:16:30;;;;;;;1.27;1.17;;;8.70;99.90;;;;;;5032574;28;20460;-72
2021/12/30 07:19:21;;;;;;;1.30;1.20;;;8.70;99.90;;;;;;5022129;28;20435;-71
2021/12/30 07:21:57;;;;;;;1.20;1.10;;;8.70;99.90;;;;;;5058414;28;21198;-72
2021/12/30 07:24:30;;;;;;;1.33;1.23;;;8.70;99.90;;;;;;5060500;28;20525;-72
2021/12/30 07:27:08;;;;;;;1.00;1.00;;;8.70;99.90;;;;;;5069286;28;20470;-72
2021/12/30 07:29:53;;;;;;;1.47;1.37;;;8.70;99.90;;;;;;5048202;28;20450;-71
2021/12/30 07:32:28;;;;;;;1.47;1.37;;;8.70;99.90;;;;;;5032731;28;20468;-71
2021/12/30 07:35:02;;;;;;;1.77;1.27;;;8.70;99.90;;;;;;5055830;28;20457;-72
2021/12/30 07:37:43;;;;;;;1.53;1.43;;;8.70;99.90;;;;;;5050802;28;20509;-72
2021/12/30 07:40:23;;;;;;;1.30;1.20;;;8.70;99.90;;;;;;5048357;28;20479;-70
2021/12/30 07:42:56;;;;;;;1.70;1.60;;;8.70;99.90;;;;;;5060054;28;20472;-71
2021/12/30 07:45:29;;;;;;;1.37;1.27;;;8.70;99.90;;;;;;5029949;28;20913;-70
2021/12/30 07:48:02;;;;;;;1.50;1.40;;;8.80;99.90;;;;;;5057728;28;20966;-72
2021/12/30 07:50:52;;;;;;;3.23;1.60;;;8.70;99.90;;;;;;5062824;28;20486;-72
2021/12/30 07:53:21;;;;;;;1.40;1.30;;;8.70;99.90;;;;;;5045499;28;20462;-72
2021/12/30 07:55:54;;;;;;;1.63;1.53;;;8.70;99.90;;;;;;5080961;28;20462;-71
2021/12/30 07:58:36;;;;;;;1.60;1.40;;;8.70;99.90;;;;;;5051036;28;20450;-71
2021/12/30 08:01:09;;;;;;;2.10;2.00;;;8.70;99.90;;;;;;5043104;28;20556;-72
2021/12/30 08:03:41;;;;;;;1.50;1.40;;;8.70;99.90;;;;;;5028069;28;20479;-72
2021/12/30 08:06:27;;;;;;;1.33;1.20;;;8.70;99.90;;;;;;5046380;28;20473;-72
2021/12/30 08:08:56;;;;;;;1.30;1.20;;;8.70;99.90;;;;;;5031297;28;20455;-72
2021/12/30 08:11:32;;;;;;;1.27;1.13;;;8.70;99.90;;;;;;5029949;28;21020;-72
2021/12/30 08:14:05;;;;;;;1.90;1.20;;;8.80;99.90;;;;;;5033538;28;20464;-72
2021/12/30 08:16:40;;;;;;;1.43;1.23;;;8.80;99.90;;;;;;5028127;28;20463;-72
2021/12/30 08:19:14;;;;;;;1.10;1.10;;;8.80;99.90;;;;;;5041388;28;20537;-72
2021/12/30 08:21:55;;;;;;;1.50;1.40;;;8.80;99.90;;;;;;5048135;28;20471;-72
2021/12/30 08:24:29;;;;;;;2.40;1.23;;;8.80;99.90;;;;;;5021483;28;20487;-72
2021/12/30 08:27:12;;;;;;;1.80;1.60;;;8.80;99.90;;;;;;5012455;28;21344;-72
2021/12/30 08:29:41;;;;;;;1.43;1.33;;;8.80;99.90;;;;;;5033113;28;20502;-72
2021/12/30 08:32:13;;;;;;;1.20;1.10;;;8.80;99.90;;;;;;5007771;28;20502;-73
2021/12/30 08:34:45;;;;;;;0.97;0.97;;;8.80;99.90;;;;;;5019995;28;20547;-73
2021/12/30 08:37:16;;;;;;;1.63;1.30;;;8.80;99.90;;;;;;5031858;28;20838;-72
2021/12/30 08:39:45;;;;;;;1.27;1.17;;;8.80;99.90;;;;;;5011037;28;20465;-73
2021/12/30 08:42:19;;;;;;;1.17;1.07;;;8.80;99.90;;;;;;5009376;28;20564;-72
2021/12/30 08:44:49;;;;;;;1.50;1.40;;;8.80;99.90;;;;;;5010182;28;20499;-72
2021/12/30 08:47:19;;;;;;;1.67;0.80;;;8.80;99.90;;;;;;5011219;28;20523;-72
2021/12/30 08:49:48;;;;;;;1.50;1.40;;;8.80;99.90;;;;;;5033213;28;20451;-73
2021/12/30 08:52:19;;;;;;;1.60;1.50;;;8.80;99.90;;;;;;5013794;28;20469;-72
2021/12/30 08:54:48;;;;;;;1.97;1.50;;;8.80;99.90;;;;;;5024527;28;20571;-72
2021/12/30 08:57:18;;;;;;;1.00;1.00;;;8.80;99.90;;;;;;5012714;28;20472;-72
2021/12/30 08:59:47;;;;;;;1.63;1.53;;;8.80;99.90;;;;;;5029216;28;20432;-73
2021/12/30 09:02:17;;;;;;;1.50;1.40;;;8.80;99.90;;;;;;5030316;28;20509;-72
2021/12/30 09:04:48;;;;;;;1.30;1.20;;;8.80;99.90;;;;;;5041998;28;20554;-72
2021/12/30 09:07:22;;;;;;;1.40;1.10;;;8.80;99.90;;;;;;5036610;28;20485;-72
2021/12/30 09:09:51;;;;;;;1.53;1.00;;;8.80;99.90;;;;;;5037662;28;20537;-71
2021/12/30 09:12:21;;;;;;;1.00;1.00;;;8.80;99.90;;;;;;5019864;28;20482;-72
2021/12/30 09:15:11;;;;;;;1.23;1.13;;;8.90;99.90;;;;;;5019868;28;20452;-70
2021/12/30 09:17:41;;;;;;;1.10;1.00;;;8.80;99.90;;;;;;5040999;28;20572;-72
2021/12/30 09:20:25;;;;;;;1.40;1.30;;;8.80;99.90;;;;;;5047433;28;20542;-71
2021/12/30 09:23:19;;;;;;;2.27;1.30;;;8.90;99.90;;;;;;5035881;28;20459;-71
2021/12/30 09:26:02;;;;;;;1.60;1.30;;;8.90;99.90;;;;;;5030654;28;20771;-71
2021/12/30 09:28:31;;;;;;;2.10;1.20;;;9.00;99.90;;;;;;5034878;28;20432;-71
2021/12/30 09:31:02;;;;;;;2.03;1.43;;;9.20;99.90;;;;;;5033082;28;20483;-66
2021/12/30 09:33:32;;;;;;;1.10;1.00;;;9.30;99.90;;;;;;5039493;28;20778;-67
2021/12/30 09:36:08;;;;;;;3.30;1.40;;;9.30;99.90;;;;;;5039472;28;20467;-66
2021/12/30 09:38:44;;;;;;;1.00;0.70;;;9.20;99.90;;;;;;5025257;28;20498;-66
2021/12/30 09:41:16;;;;;;;1.50;1.40;;;9.20;99.90;;;;;;5041632;28;20475;-66
2021/12/30 09:43:44;;;;;;;1.70;1.10;;;9.10;99.90;;;;;;5042263;28;20561;-65
2021/12/30 09:46:14;;;;;;;1.20;1.10;;;9.10;99.90;;;;;;5038293;28;20934;-65
2021/12/30 09:48:45;;;;;;;1.23;1.00;;;9.10;99.90;;;;;;5025830;28;20467;-66
2021/12/30 09:51:16;;;;;;;1.50;1.30;;;9.10;99.90;;;;;;5032623;28;20483;-66
2021/12/30 09:53:46;;;;;;;2.30;2.10;;;9.10;99.90;;;;;;5057916;28;20456;-66
2021/12/30 09:56:15;;;;;;;2.20;1.70;;;9.10;99.90;;;;;;5044205;28;20469;-65
2021/12/30 09:58:44;;;;;;;1.33;1.17;;;9.00;99.90;;;;;;5037542;28;20439;-66
2021/12/30 10:01:13;;;;;;;1.30;1.20;;;9.00;99.90;;;;;;5037894;28;20502;-66
2021/12/30 10:03:45;;;;;;;1.20;1.10;;;9.00;99.90;;;;;;5024521;28;20466;-65
2021/12/30 10:06:18;;;;;;;1.50;1.30;;;9.00;99.90;;;;;;5045998;28;20652;-66
2021/12/30 10:08:56;;;;;;;1.30;1.20;;;9.00;99.90;;;;;;5038371;28;20481;-65
2021/12/30 10:11:25;;;;;;;1.97;1.40;;;9.00;99.90;;;;;;5050322;28;20467;-66
2021/12/30 10:13:59;;;;;;;1.43;1.20;;;9.00;99.90;;;;;;5037754;28;20494;-65
2021/12/30 10:16:29;;;;;;;1.27;0.93;;;9.10;99.90;;;;;;5027569;28;20474;-65
2021/12/30 10:19:02;;;;;;;1.33;1.23;;;9.00;99.90;;;;;;5037876;28;20439;-66
2021/12/30 10:21:40;;;;;;;2.17;1.40;;;9.00;99.90;;;;;;5031002;28;20563;-65
2021/12/30 10:24:10;;;;;;;3.83;1.63;;;9.00;99.90;;;;;;5040219;28;20478;-67
2021/12/30 10:26:50;;;;;;;1.30;1.20;;;9.00;99.90;;;;;;5034742;28;20476;-65
2021/12/30 10:29:28;;;;;;;1.30;1.10;;;9.10;99.90;;;;;;5034489;28;20467;-65
2021/12/30 10:31:57;;;;;;;1.13;0.93;;;9.00;99.90;;;;;;5022777;28;20467;-66
2021/12/30 10:34:30;;;;;;;1.57;1.13;;;9.00;99.90;;;;;;5026455;28;20456;-66
2021/12/30 10:37:26;;;;;;;1.20;1.00;;;9.00;99.90;;;;;;5029657;28;21048;-65
2021/12/30 10:40:00;;;;;;;1.43;0.80;;;9.00;99.90;;;;;;5051091;28;20473;-66
2021/12/30 10:42:31;;;;;;;1.53;1.23;;;9.00;99.90;;;;;;5031331;28;20825;-65
2021/12/30 10:45:04;;;;;;;1.43;1.03;;;9.10;99.90;;;;;;5029145;28;20562;-65
2021/12/30 10:47:35;;;;;;;0.87;0.87;;;9.00;99.90;;;;;;5045322;28;20460;-66
2021/12/30 10:50:07;;;;;;;2.17;1.20;;;9.10;99.90;;;;;;5028500;28;20523;-66
2021/12/30 10:52:49;;;;;;;1.10;0.90;;;9.10;99.90;;;;;;5038464;28;20451;-67
2021/12/30 10:55:33;;;;;;;0.90;0.67;;;9.10;99.90;;;;;;5051428;28;20476;-67
2021/12/30 10:58:21;;;;;;;1.40;1.10;;;9.10;99.90;;;;;;5041556;28;20438;-65
2021/12/30 11:00:51;;;;;;;1.00;0.90;;;9.10;99.90;;;;;;5022693;28;20878;-66
2021/12/30 11:03:25;;;;;;;1.20;1.17;;;9.10;99.90;;;;;;5006416;28;20826;-66
2021/12/30 11:06:14;;;;;;;1.50;1.40;;;9.10;99.90;;;;;;5058569;28;20491;-66
2021/12/30 11:08:47;;;;;;;0.93;0.83;;;9.10;99.90;;;;;;5033515;28;20432;-66
2021/12/30 11:11:32;;;;;;;1.57;1.20;;;9.10;99.90;;;;;;5027922;28;20526;-65
2021/12/30 11:14:15;;;;;;;1.20;0.93;;;9.20;99.90;;;;;;5046256;28;20443;-66
2021/12/30 11:17:08;;;;;;;1.93;1.60;;;9.20;99.90;;;;;;5021429;28;20471;-66
2021/12/30 11:19:52;;;;;;;1.27;1.17;;;9.20;99.90;;;;;;5063844;28;20959;-66
2021/12/30 11:22:27;;;;;;;1.33;1.20;;;9.10;99.90;;;;;;5041624;28;20501;-66
2021/12/30 11:24:59;;;;;;;1.10;0.80;;;9.10;99.90;;;;;;5018030;28;20472;-66
2021/12/30 11:27:47;;;;;;;2.03;1.40;;;9.10;99.90;;;;;;5011585;28;20456;-66
2021/12/30 11:30:20;;;;;;;1.13;1.03;;;9.20;99.90;;;;;;5033987;28;20950;-66
2021/12/30 11:32:49;;;;;;;1.50;1.40;;;9.10;99.90;;;;;;5045969;28;20957;-66
2021/12/30 11:35:35;;;;;;;1.40;1.27;;;9.10;99.90;;;;;;5049945;28;20527;-67
2021/12/30 11:38:17;;;;;;;1.30;1.20;;;9.10;99.90;;;;;;5041352;28;20439;-66
2021/12/30 11:40:54;;;;;;;1.50;1.17;;;9.10;99.90;;;;;;5033318;28;20475;-66
2021/12/30 11:43:42;;;;;;;2.60;1.10;;;9.20;99.90;;;;;;5047388;28;20525;-66
2021/12/30 11:46:38;;;;;;;1.40;1.10;;;9.20;99.90;;;;;;5037705;28;20463;-67
2021/12/30 11:49:14;;;;;;;1.47;1.13;;;9.20;99.90;;;;;;5016132;28;20439;-66
2021/12/30 11:51:54;;;;;;;1.17;1.10;;;9.20;99.90;;;;;;5027694;28;20471;-67
2021/12/30 11:54:34;;;;;;;1.43;1.33;;;9.20;99.90;;;;;;5033280;28;20482;-66
2021/12/30 11:57:28;;;;;;;1.13;0.80;;;9.20;99.90;;;;;;5037889;28;20463;-65
2021/12/30 12:00:00;;;;;;;1.47;1.20;;;9.20;99.90;;;;;;5031788;28;20444;-66
2021/12/30 12:02:37;;;;;;;1.50;1.20;;;9.20;99.90;;;;;;5035574;28;20940;-65
2021/12/30 12:05:41;;;;;;;1.40;1.20;;;9.20;99.90;;;;;;5031485;28;21070;-66
2021/12/30 12:08:16;;;;;;;1.33;1.00;;;9.20;99.90;;;;;;5032511;28;20450;-65
2021/12/30 12:11:09;;;;;;;1.17;1.07;;;9.20;99.90;;;;;;5026911;28;21038;-66
2021/12/30 12:13:53;;;;;;;2.30;1.50;;;9.20;99.90;;;;;;5042862;28;20436;-68
2021/12/30 12:16:46;;;;;;;2.50;1.67;;;9.30;99.90;;;;;;5022972;28;20503;-67
2021/12/30 12:19:20;;;;;;;2.20;1.83;;;9.50;99.90;;;;;;5028806;28;20435;-67
2021/12/30 12:21:56;;;;;;;2.93;2.20;;;9.70;99.90;;;;;;5045824;28;20474;-67
2021/12/30 12:24:34;;;;;;;1.90;1.43;;;9.90;99.90;;;;;;5036208;28;20538;-67
2021/12/30 12:27:11;;;;;;;2.60;1.80;;;10.00;99.90;;;;;;5032937;28;20479;-67
2021/12/30 12:29:57;;;;;;;1.80;1.53;;;10.10;99.90;;;;;;5016536;28;20436;-67
2021/12/30 12:32:52;;;;;;;2.97;2.10;;;10.20;99.90;;;;;;5028678;28;20481;-67
2021/12/30 12:35:41;;;;;;;2.27;1.90;;;10.30;99.90;;;;;;5011856;28;20460;-67
2021/12/30 12:38:25;;;;;;;2.83;1.73;;;10.40;99.90;;;;;;5045294;28;20439;-68
2021/12/30 12:40:54;;;;;;;5.40;2.40;;;10.40;99.90;;;;;;5036243;28;20466;-68
2021/12/30 12:43:28;;;;;;;1.50;1.07;;;10.50;99.90;;;;;;5045718;28;20428;-68
2021/12/30 12:46:10;;;;;;;2.87;1.10;;;10.50;99.90;;;;;;5031046;28;20853;-68
2021/12/30 12:48:53;;;;;;;4.80;2.27;;;10.60;99.90;;;;;;5048182;28;20443;-68
2021/12/30 12:51:29;;;;;;;2.27;1.50;;;10.60;99.90;;;;;;5030620;28;20471;-67
2021/12/30 12:54:03;;;;;;;1.30;1.07;;;10.60;99.90;;;;;;5030661;28;20476;-68
2021/12/30 12:56:46;;;;;;;1.67;1.10;;;10.60;99.90;;;;;;5043217;28;20565;-66
2021/12/30 12:59:35;;;;;;;6.03;1.80;;;10.70;99.90;;;;;;5043030;28;20937;-67
2021/12/30 13:02:14;;;;;;;1.40;1.13;;;10.70;99.90;;;;;;5025564;28;20522;-67
2021/12/30 13:04:50;;;;;;;2.97;1.10;;;10.70;99.90;;;;;;5024965;28;20559;-67
2021/12/30 13:07:27;;;;;;;1.10;1.00;;;10.70;99.90;;;;;;5020378;28;20479;-67
2021/12/30 13:09:58;;;;;;;2.70;1.10;;;10.70;99.90;;;;;;5052744;28;20455;-68
2021/12/30 13:12:30;;;;;;;2.30;1.33;;;10.70;99.90;;;;;;5028512;28;21000;-68
2021/12/30 13:15:01;;;;;;;1.60;1.07;;;10.70;99.90;;;;;;5039912;28;20482;-68
2021/12/30 13:17:41;;;;;;;2.37;1.50;;;10.80;99.90;;;;;;5027290;28;20486;-66
2021/12/30 13:20:23;;;;;;;1.83;1.30;;;10.80;99.90;;;;;;5016192;28;20456;-67
2021/12/30 13:23:02;;;;;;;2.23;1.00;;;10.80;99.90;;;;;;5011878;28;20425;-67
2021/12/30 13:25:31;;;;;;;2.17;1.30;;;10.80;99.90;;;;;;5028647;28;20460;-66
2021/12/30 13:28:05;;;;;;;2.03;1.20;;;10.70;99.90;;;;;;5027343;28;20436;-67
2021/12/30 13:30:36;;;;;;;1.70;1.33;;;10.50;99.90;;;;;;5007402;28;20457;-67
2021/12/30 13:33:07;;;;;;;2.20;1.03;;;10.50;99.90;;;;;;5008442;28;20514;-66
2021/12/30 13:35:43;;;;;;;2.43;1.03;;;10.30;99.90;;;;;;5007301;28;20562;-66
2021/12/30 13:38:15;;;;;;;2.83;2.10;;;10.20;99.90;;;;;;5008093;28;20439;-67
2021/12/30 13:40:46;;;;;;;1.73;1.30;;;10.20;99.90;;;;;;5009001;28;20527;-67
2021/12/30 13:43:20;;;;;;;3.40;1.30;;;10.10;99.90;;;;;;5009374;28;20467;-66
2021/12/30 13:45:52;;;;;;;1.80;1.70;;;10.10;99.90;;;;;;5007902;28;20473;-66